createdAt,value
2023-04-21T00:00:19.714Z,99.90
2023-04-21T00:02:57.610Z,99.90
2023-04-21T00:08:47.770Z,99.90
2023-04-21T00:11:15.691Z,99.90
2023-04-21T00:13:44.553Z,99.90
2023-04-21T00:16:13.101Z,99.90
2023-04-21T00:18:45.522Z,99.90
2023-04-21T00:21:12.606Z,99.90
2023-04-21T00:23:42.612Z,99.90
2023-04-21T00:26:13.163Z,99.90
2023-04-21T00:28:45.993Z,99.90
2023-04-21T00:31:18.108Z,99.90
2023-04-21T00:33:45.655Z,99.90
2023-04-21T00:36:15.553Z,99.90
2023-04-21T00:38:46.268Z,99.90
2023-04-21T00:41:13.468Z,99.90
2023-04-21T00:44:07.868Z,99.90
2023-04-21T00:46:38.002Z,99.90
2023-04-21T00:49:10.944Z,99.90
2023-04-21T00:51:51.947Z,99.90
2023-04-21T00:54:23.361Z,99.90
2023-04-21T00:56:56.443Z,99.90
2023-04-21T00:59:28.172Z,99.90
2023-04-21T01:01:58.457Z,99.90
2023-04-21T01:04:29.548Z,99.90
2023-04-21T01:07:03.975Z,99.90
2023-04-21T01:09:43.023Z,99.90
2023-04-21T01:12:13.497Z,99.90
2023-04-21T01:14:50.691Z,99.90
2023-04-21T01:17:22.089Z,99.90
2023-04-21T01:19:54.333Z,99.90
2023-04-21T01:22:22.781Z,99.90
2023-04-21T01:24:54.341Z,99.90
2023-04-21T01:27:24.329Z,99.90
2023-04-21T01:29:54.269Z,99.90
2023-04-21T01:32:26.015Z,99.90
2023-04-21T01:34:59.985Z,99.90
2023-04-21T01:37:37.507Z,99.90
2023-04-21T01:40:10.741Z,99.90
2023-04-21T01:42:45.139Z,99.90
2023-04-21T01:45:14.763Z,99.90
2023-04-21T01:47:45.998Z,99.90
2023-04-21T01:50:16.956Z,99.90
2023-04-21T01:52:44.275Z,99.90
2023-04-21T01:55:16.507Z,99.90
2023-04-21T01:57:43.450Z,99.90
2023-04-21T02:00:13.374Z,99.90
2023-04-21T02:02:44.092Z,99.90
2023-04-21T02:05:12.980Z,99.90
2023-04-21T02:07:42.818Z,99.90
2023-04-21T02:10:13.351Z,99.90
2023-04-21T02:12:40.319Z,99.90
2023-04-21T02:15:14.495Z,99.90
2023-04-21T02:17:44.207Z,99.90
2023-04-21T02:20:13.884Z,99.90
2023-04-21T02:22:42.501Z,99.90
2023-04-21T02:25:19.525Z,99.90
2023-04-21T02:27:48.105Z,99.90
2023-04-21T02:30:15.903Z,99.90
2023-04-21T02:32:44.255Z,99.90
2023-04-21T02:35:13.427Z,99.90
2023-04-21T02:37:41.463Z,99.90
2023-04-21T02:40:10.641Z,99.90
2023-04-21T02:42:48.407Z,99.90
2023-04-21T02:45:17.002Z,99.90
2023-04-21T02:47:47.423Z,99.90
2023-04-21T02:50:15.988Z,99.90
2023-04-21T02:52:45.482Z,99.90
2023-04-21T02:55:13.719Z,99.90
2023-04-21T02:57:40.767Z,99.90
2023-04-21T03:00:13.924Z,99.90
2023-04-21T03:02:42.679Z,99.90
2023-04-21T03:05:19.881Z,99.90
2023-04-21T03:07:47.802Z,99.90
2023-04-21T03:10:17.206Z,99.90
2023-04-21T03:12:47.386Z,99.90
2023-04-21T03:15:14.914Z,99.90
2023-04-21T03:17:43.806Z,99.90
2023-04-21T03:20:13.347Z,99.90
2023-04-21T03:22:43.709Z,99.90
2023-04-21T03:25:12.832Z,99.90
2023-04-21T03:27:44.123Z,99.90
2023-04-21T03:30:18.548Z,99.90
2023-04-21T03:32:47.227Z,99.90
2023-04-21T03:35:18.290Z,99.90
2023-04-21T03:37:49.203Z,99.90
2023-04-21T03:40:18.413Z,99.90
2023-04-21T03:42:54.206Z,99.90
2023-04-21T03:45:25.608Z,99.90
2023-04-21T03:47:57.885Z,99.90
2023-04-21T03:50:27.132Z,99.90
2023-04-21T03:52:56.444Z,99.90
2023-04-21T03:55:28.224Z,99.90
2023-04-21T03:57:58.910Z,99.90
2023-04-21T04:00:28.085Z,99.90
2023-04-21T04:02:57.433Z,99.90
2023-04-21T04:05:27.787Z,99.90
2023-04-21T04:07:55.216Z,99.90
2023-04-21T04:10:23.851Z,99.90
2023-04-21T04:12:54.986Z,99.90
2023-04-21T04:15:22.232Z,99.90
2023-04-21T04:17:55.752Z,99.90
2023-04-21T04:20:26.593Z,99.90
2023-04-21T04:22:53.787Z,99.90
2023-04-21T04:25:22.608Z,99.90
2023-04-21T04:27:51.492Z,99.90
2023-04-21T04:30:20.667Z,99.90
2023-04-21T04:32:49.039Z,99.90
2023-04-21T04:35:17.043Z,99.90
2023-04-21T04:37:47.205Z,99.90
2023-04-21T04:40:16.822Z,99.90
2023-04-21T04:42:47.980Z,99.90
2023-04-21T04:45:25.678Z,99.90
2023-04-21T04:47:55.807Z,99.90
2023-04-21T04:50:27.904Z,99.90
2023-04-21T04:53:01.424Z,99.90
2023-04-21T04:55:31.785Z,99.90
2023-04-21T04:58:03.123Z,99.90
2023-04-21T05:00:40.249Z,99.90
2023-04-21T05:03:08.121Z,99.90
2023-04-21T05:05:37.817Z,99.90
2023-04-21T05:08:04.968Z,99.90
2023-04-21T05:10:35.488Z,99.90
2023-04-21T05:13:02.739Z,99.90
2023-04-21T05:15:33.327Z,99.90
2023-04-21T05:18:02.812Z,99.90
2023-04-21T05:20:36.582Z,99.90
2023-04-21T05:23:07.571Z,99.90
2023-04-21T05:25:39.537Z,99.90
2023-04-21T05:28:08.932Z,99.90
2023-04-21T05:30:46.661Z,99.90
2023-04-21T05:33:14.174Z,99.90
2023-04-21T05:35:42.428Z,99.90
2023-04-21T05:38:12.150Z,99.90
2023-04-21T05:40:39.171Z,99.90
2023-04-21T05:43:12.213Z,99.90
2023-04-21T05:45:42.317Z,99.90
2023-04-21T05:48:13.834Z,99.90
2023-04-21T05:50:50.088Z,99.90
2023-04-21T05:53:21.207Z,99.90
2023-04-21T05:55:51.787Z,99.90
2023-04-21T05:58:22.394Z,99.90
2023-04-21T06:00:51.754Z,99.90
2023-04-21T06:03:20.250Z,99.90
2023-04-21T06:05:59.984Z,99.90
2023-04-21T06:08:36.187Z,99.90
2023-04-21T06:11:04.036Z,99.90
2023-04-21T06:13:32.853Z,99.90
2023-04-21T06:16:01.965Z,99.90
2023-04-21T06:18:34.086Z,99.90
2023-04-21T06:21:05.089Z,99.90
2023-04-21T06:23:33.926Z,99.90
2023-04-21T06:26:10.696Z,99.90
2023-04-21T06:29:01.801Z,99.90
2023-04-21T06:31:30.083Z,99.90
2023-04-21T06:33:57.598Z,99.90
2023-04-21T06:36:27.876Z,99.90
2023-04-21T06:38:58.492Z,99.90
2023-04-21T06:41:28.426Z,99.90
2023-04-21T06:43:58.650Z,99.90
2023-04-21T06:46:29.749Z,98.60
2023-04-21T06:49:00.054Z,97.10
2023-04-21T06:51:32.956Z,97.30
2023-04-21T06:54:02.149Z,95.90
2023-04-21T06:56:40.153Z,95.40
2023-04-21T06:59:10.709Z,96.70
2023-04-21T07:01:38.516Z,98.90
2023-04-21T07:04:07.034Z,99.30
2023-04-21T07:06:35.887Z,99.90
2023-04-21T07:09:06.488Z,99.90
2023-04-21T07:11:36.607Z,99.90
2023-04-21T07:14:06.320Z,99.90
2023-04-21T07:16:36.265Z,99.90
2023-04-21T07:19:06.925Z,99.90
2023-04-21T07:21:36.836Z,99.90
2023-04-21T07:24:08.218Z,99.90
2023-04-21T07:26:36.896Z,99.90
2023-04-21T07:29:07.757Z,99.90
2023-04-21T07:31:38.228Z,99.90
2023-04-21T07:34:08.613Z,99.90
2023-04-21T07:36:36.281Z,99.90
2023-04-21T07:39:06.811Z,99.90
2023-04-21T07:41:41.326Z,99.90
2023-04-21T07:44:11.151Z,99.90
2023-04-21T07:46:40.215Z,99.90
2023-04-21T07:49:18.681Z,99.90
2023-04-21T07:51:50.198Z,99.90
2023-04-21T07:54:21.071Z,99.90
2023-04-21T07:56:52.010Z,99.90
2023-04-21T07:59:19.360Z,99.90
2023-04-21T08:01:47.787Z,99.90
2023-04-21T08:04:25.685Z,99.90
2023-04-21T08:06:54.572Z,99.90
2023-04-21T08:09:23.503Z,99.90
2023-04-21T08:11:54.208Z,99.90
2023-04-21T08:14:24.402Z,99.90
2023-04-21T08:16:53.062Z,99.90
2023-04-21T08:19:32.661Z,99.90
2023-04-21T08:22:03.392Z,99.90
2023-04-21T08:24:34.217Z,99.90
2023-04-21T08:27:04.035Z,99.90
2023-04-21T08:29:33.240Z,99.90
2023-04-21T08:32:10.024Z,99.90
2023-04-21T08:34:39.007Z,99.90
2023-04-21T08:37:15.145Z,99.90
2023-04-21T08:39:42.476Z,99.90
2023-04-21T08:42:14.412Z,99.90
2023-04-21T08:44:52.082Z,99.90
2023-04-21T08:47:22.924Z,99.90
2023-04-21T08:49:52.547Z,99.90
2023-04-21T08:52:22.891Z,99.90
2023-04-21T08:54:53.593Z,99.90
2023-04-21T08:57:21.474Z,99.90
2023-04-21T08:59:48.695Z,99.90
2023-04-21T09:02:27.470Z,99.90
2023-04-21T09:05:05.507Z,99.90
2023-04-21T09:07:46.221Z,99.90
2023-04-21T09:10:14.561Z,99.90
2023-04-21T09:12:43.660Z,99.90
2023-04-21T09:15:17.182Z,99.90
2023-04-21T09:17:46.789Z,99.90
2023-04-21T09:20:31.074Z,99.90
2023-04-21T09:22:59.936Z,99.90
2023-04-21T09:25:27.833Z,99.90
2023-04-21T09:28:05.206Z,99.90
2023-04-21T09:30:39.496Z,99.90
2023-04-21T09:33:27.923Z,99.90
2023-04-21T09:36:05.744Z,99.90
2023-04-21T09:38:37.585Z,99.90
2023-04-21T09:41:14.715Z,99.90
2023-04-21T09:43:43.565Z,98.50
2023-04-21T09:46:19.358Z,99.00
2023-04-21T09:48:49.324Z,99.30
2023-04-21T09:51:32.680Z,98.50
2023-04-21T09:54:30.072Z,99.00
2023-04-21T09:57:04.232Z,98.50
2023-04-21T09:59:41.392Z,99.60
2023-04-21T10:02:14.818Z,99.60
2023-04-21T10:04:49.567Z,99.00
2023-04-21T10:07:19.471Z,99.90
2023-04-21T10:09:59.572Z,99.40
2023-04-21T10:12:29.322Z,99.90
2023-04-21T10:14:58.824Z,98.80
2023-04-21T10:17:27.745Z,98.70
2023-04-21T10:20:02.488Z,98.60
2023-04-21T10:22:40.819Z,99.40
2023-04-21T10:25:14.780Z,99.80
2023-04-21T10:27:46.819Z,98.50
2023-04-21T10:30:29.803Z,97.90
2023-04-21T10:33:07.179Z,98.80
2023-04-21T10:36:11.285Z,97.10
2023-04-21T10:39:14.763Z,97.60
2023-04-21T10:41:46.939Z,97.00
2023-04-21T10:44:16.394Z,95.80
2023-04-21T10:46:56.613Z,96.10
2023-04-21T10:49:36.426Z,97.00
2023-04-21T10:52:17.405Z,99.00
2023-04-21T10:54:59.199Z,99.20
2023-04-21T10:57:37.038Z,99.90
2023-04-21T11:00:07.626Z,99.90
2023-04-21T11:02:38.890Z,98.10
2023-04-21T11:05:11.939Z,98.00
2023-04-21T11:07:41.036Z,97.70
2023-04-21T11:10:12.121Z,97.40
2023-04-21T11:12:42.975Z,98.10
2023-04-21T11:15:15.786Z,98.00
2023-04-21T11:17:48.044Z,98.60
2023-04-21T11:20:16.329Z,99.60
2023-04-21T11:22:43.798Z,99.90
2023-04-21T11:25:18.900Z,98.90
2023-04-21T11:28:00.645Z,98.80
2023-04-21T11:30:36.947Z,99.10
2023-04-21T11:33:04.273Z,99.20
2023-04-21T11:35:34.297Z,99.10
2023-04-21T11:38:07.060Z,97.80
2023-04-21T11:40:56.294Z,99.90
2023-04-21T11:43:31.885Z,99.60
2023-04-21T11:46:24.488Z,98.70
2023-04-21T11:49:12.146Z,98.20
2023-04-21T11:51:48.071Z,98.80
2023-04-21T11:54:25.223Z,99.20
2023-04-21T11:57:02.865Z,99.30
2023-04-21T11:59:34.553Z,99.70
2023-04-21T12:02:01.952Z,99.70
2023-04-21T12:04:30.450Z,99.90
2023-04-21T12:07:03.004Z,97.60
2023-04-21T12:09:31.545Z,96.70
2023-04-21T12:11:59.164Z,98.10
2023-04-21T12:14:29.406Z,96.60
2023-04-21T12:16:58.667Z,94.90
2023-04-21T12:19:45.537Z,94.30
2023-04-21T12:22:20.225Z,99.90
2023-04-21T12:24:50.757Z,99.90
2023-04-21T12:27:21.305Z,99.80
2023-04-21T12:29:57.081Z,99.90
2023-04-21T12:32:26.081Z,99.90
2023-04-21T12:35:02.051Z,99.90
2023-04-21T12:37:33.613Z,99.90
2023-04-21T12:40:02.018Z,99.90
2023-04-21T12:42:30.704Z,99.90
2023-04-21T12:44:57.954Z,99.90
2023-04-21T12:47:35.628Z,99.90
2023-04-21T12:50:03.126Z,99.90
2023-04-21T12:52:40.677Z,99.90
2023-04-21T12:55:18.132Z,99.90
2023-04-21T12:57:45.979Z,99.90
2023-04-21T13:00:16.437Z,99.90
2023-04-21T13:03:08.625Z,99.90
2023-04-21T13:05:36.970Z,99.90
2023-04-21T13:08:08.703Z,99.90
2023-04-21T13:10:41.472Z,99.90
2023-04-21T13:13:10.245Z,99.90
2023-04-21T13:15:40.416Z,99.90
2023-04-21T13:18:08.954Z,99.90
2023-04-21T13:20:37.849Z,99.90
2023-04-21T13:23:07.577Z,99.90
2023-04-21T13:25:41.575Z,99.90
2023-04-21T13:28:11.788Z,99.90
2023-04-21T13:30:38.785Z,99.90
2023-04-21T13:33:08.899Z,99.90
2023-04-21T13:35:37.995Z,99.90
2023-04-21T13:38:15.020Z,99.90
2023-04-21T13:40:51.005Z,99.90
2023-04-21T13:43:21.022Z,99.90
2023-04-21T13:45:52.591Z,99.90
2023-04-21T13:48:27.530Z,99.90
2023-04-21T13:50:58.981Z,99.90
2023-04-21T13:53:36.635Z,99.90
2023-04-21T13:56:05.143Z,99.90
2023-04-21T13:58:33.969Z,99.90
2023-04-21T14:01:02.406Z,99.90
2023-04-21T14:03:31.406Z,99.90
2023-04-21T14:06:02.576Z,99.90
2023-04-21T14:08:33.762Z,99.90
2023-04-21T14:11:04.955Z,99.90
2023-04-21T14:13:49.205Z,99.90
2023-04-21T14:16:31.552Z,99.90
2023-04-21T14:19:00.154Z,99.90
2023-04-21T14:21:29.912Z,99.90
2023-04-21T14:24:00.891Z,99.90
2023-04-21T14:26:33.235Z,99.90
2023-04-21T14:29:03.111Z,99.90
2023-04-21T14:31:32.483Z,99.90
2023-04-21T14:33:59.661Z,99.90
2023-04-21T14:36:29.425Z,99.90
2023-04-21T14:38:58.163Z,99.90
2023-04-21T14:41:35.802Z,99.90
2023-04-21T14:44:04.128Z,99.90
2023-04-21T14:46:32.343Z,99.90
2023-04-21T14:49:03.829Z,99.90
2023-04-21T14:51:41.388Z,99.90
2023-04-21T14:54:09.365Z,99.90
2023-04-21T14:56:39.662Z,99.90
2023-04-21T14:59:11.017Z,99.90
2023-04-21T15:01:42.739Z,99.90
2023-04-21T15:04:11.899Z,99.90
2023-04-21T15:06:49.129Z,99.90
2023-04-21T15:09:17.637Z,99.90
2023-04-21T15:11:52.359Z,99.90
2023-04-21T15:14:24.865Z,99.90
2023-04-21T15:16:54.467Z,99.90
2023-04-21T15:19:30.399Z,99.90
2023-04-21T15:21:59.764Z,99.90
2023-04-21T15:24:34.121Z,99.90
2023-04-21T15:27:02.704Z,99.90
2023-04-21T15:29:41.089Z,99.90
2023-04-21T15:32:10.316Z,99.90
2023-04-21T15:34:47.448Z,99.90
2023-04-21T15:37:18.873Z,99.90
2023-04-21T15:39:53.929Z,99.90
2023-04-21T15:42:22.384Z,99.90
2023-04-21T15:44:52.945Z,99.90
2023-04-21T15:47:25.288Z,99.90
2023-04-21T15:49:54.124Z,99.90
2023-04-21T15:52:24.175Z,99.90
2023-04-21T15:54:52.704Z,99.90
2023-04-21T15:57:25.172Z,99.90
2023-04-21T15:59:56.452Z,99.90
2023-04-21T16:02:26.541Z,99.90
2023-04-21T16:04:58.912Z,99.90
2023-04-21T16:07:29.025Z,99.90
2023-04-21T16:09:57.976Z,99.90
2023-04-21T16:12:25.240Z,99.90
2023-04-21T16:15:03.974Z,99.90
2023-04-21T16:17:38.959Z,99.90
2023-04-21T16:20:08.733Z,99.90
2023-04-21T16:22:44.466Z,99.90
2023-04-21T16:25:18.690Z,99.90
2023-04-21T16:27:46.647Z,99.90
2023-04-21T16:30:15.278Z,99.90
2023-04-21T16:32:44.804Z,99.90
2023-04-21T16:35:14.569Z,99.90
2023-04-21T16:37:46.300Z,99.90
2023-04-21T16:40:15.065Z,99.90
2023-04-21T16:42:45.202Z,99.90
2023-04-21T16:45:13.779Z,99.90
2023-04-21T16:47:42.545Z,99.90
2023-04-21T16:50:11.977Z,99.90
2023-04-21T16:52:41.061Z,99.90
2023-04-21T16:55:11.908Z,99.90
2023-04-21T16:57:42.527Z,99.90
2023-04-21T17:00:14.157Z,99.90
2023-04-21T17:02:43.003Z,99.90
2023-04-21T17:05:15.520Z,99.90
2023-04-21T17:07:46.473Z,99.90
2023-04-21T17:10:16.710Z,99.90
2023-04-21T17:12:56.911Z,99.90
2023-04-21T17:15:28.118Z,99.90
2023-04-21T17:17:58.108Z,99.90
2023-04-21T17:20:28.670Z,99.90
2023-04-21T17:22:58.000Z,99.90
2023-04-21T17:25:26.450Z,99.90
2023-04-21T17:27:58.207Z,99.90
2023-04-21T17:30:25.524Z,99.90
2023-04-21T17:33:04.106Z,99.90
2023-04-21T17:35:55.726Z,99.90
2023-04-21T17:38:31.602Z,99.90
2023-04-21T17:41:03.234Z,99.90
2023-04-21T17:43:30.198Z,99.90
2023-04-21T17:45:58.828Z,99.90
2023-04-21T17:48:37.706Z,99.90
2023-04-21T17:51:05.190Z,99.90
2023-04-21T17:53:34.194Z,99.90
2023-04-21T17:56:02.972Z,99.90
2023-04-21T17:58:32.388Z,99.90
2023-04-21T18:01:00.629Z,99.90
2023-04-21T18:03:30.638Z,99.90
2023-04-21T18:06:09.826Z,99.90
2023-04-21T18:08:40.693Z,99.90
2023-04-21T18:11:12.747Z,99.90
2023-04-21T18:13:41.504Z,99.90
2023-04-21T18:18:51.979Z,99.90
2023-04-21T18:21:22.357Z,99.90
2023-04-21T18:23:53.496Z,99.90
2023-04-21T18:26:22.218Z,99.90
2023-04-21T18:28:50.825Z,99.90
2023-04-21T18:31:26.490Z,99.90
2023-04-21T18:33:56.427Z,99.90
2023-04-21T18:36:25.107Z,99.90
2023-04-21T18:38:52.305Z,99.90
2023-04-21T18:41:23.505Z,99.90
2023-04-21T18:43:50.723Z,99.90
2023-04-21T18:46:19.231Z,99.90
2023-04-21T18:48:48.069Z,99.90
2023-04-21T18:51:19.154Z,99.90
2023-04-21T18:53:49.920Z,99.90
2023-04-21T18:56:18.216Z,99.90
2023-04-21T18:58:49.366Z,99.90
2023-04-21T19:01:19.975Z,99.90
2023-04-21T19:03:48.667Z,99.90
2023-04-21T19:06:16.593Z,99.90
2023-04-21T19:08:45.082Z,99.90
2023-04-21T19:11:23.005Z,99.90
2023-04-21T19:13:59.843Z,99.90
2023-04-21T19:16:32.180Z,99.90
2023-04-21T19:18:59.407Z,99.90
2023-04-21T19:21:27.644Z,99.90
2023-04-21T19:23:57.832Z,99.90
2023-04-21T19:26:29.250Z,99.90
2023-04-21T19:29:03.271Z,99.90
2023-04-21T19:31:32.937Z,99.90
2023-04-21T19:34:01.611Z,99.90
2023-04-21T19:36:39.719Z,99.90
2023-04-21T19:39:09.400Z,99.90
2023-04-21T19:41:40.714Z,99.90
2023-04-21T19:44:08.106Z,99.90
2023-04-21T19:46:35.753Z,99.90
2023-04-21T19:49:03.478Z,99.90
2023-04-21T19:51:37.040Z,99.90
2023-04-21T19:54:11.980Z,99.90
2023-04-21T19:56:40.875Z,99.90
2023-04-21T19:59:12.073Z,99.90
2023-04-21T20:01:40.558Z,99.90
2023-04-21T20:04:12.108Z,99.90
2023-04-21T20:06:42.076Z,99.90
2023-04-21T20:09:12.812Z,99.90
2023-04-21T20:11:41.646Z,99.90
2023-04-21T20:14:09.007Z,99.90
2023-04-21T20:16:40.704Z,99.90
2023-04-21T20:19:12.409Z,99.90
2023-04-21T20:21:49.503Z,99.90
2023-04-21T20:24:18.618Z,99.90
2023-04-21T20:26:46.919Z,99.90
2023-04-21T20:29:23.859Z,99.90
2023-04-21T20:31:55.082Z,99.90
2023-04-21T20:34:24.230Z,99.90
2023-04-21T20:36:57.070Z,99.90
2023-04-21T20:39:28.038Z,99.90
2023-04-21T20:42:12.075Z,99.90
2023-04-21T20:44:43.323Z,99.90
2023-04-21T20:47:13.477Z,99.90
2023-04-21T20:49:43.865Z,99.90
2023-04-21T20:52:13.864Z,99.90
2023-04-21T20:54:44.219Z,99.90
2023-04-21T20:57:15.899Z,99.90
2023-04-21T20:59:44.423Z,99.90
2023-04-21T21:02:22.614Z,99.90
2023-04-21T21:04:53.017Z,99.90
2023-04-21T21:07:23.645Z,99.90
2023-04-21T21:09:56.958Z,99.90
2023-04-21T21:12:27.921Z,99.90
2023-04-21T21:14:56.539Z,99.90
2023-04-21T21:17:27.928Z,99.90
2023-04-21T21:19:56.987Z,99.90
2023-04-21T21:22:29.601Z,99.90
2023-04-21T21:25:06.308Z,99.90
2023-04-21T21:27:33.512Z,99.90
2023-04-21T21:30:03.368Z,99.90
2023-04-21T21:32:31.894Z,99.90
2023-04-21T21:35:02.315Z,99.90
2023-04-21T21:37:31.548Z,99.90
2023-04-21T21:39:59.994Z,99.90
2023-04-21T21:42:36.527Z,99.90
2023-04-21T21:45:03.913Z,99.90
2023-04-21T21:47:41.796Z,99.90
2023-04-21T21:50:21.873Z,99.90
2023-04-21T21:52:53.083Z,99.90
2023-04-21T21:55:20.667Z,99.90
2023-04-21T21:57:49.356Z,99.90
2023-04-21T22:00:20.915Z,99.90
2023-04-21T22:02:51.461Z,99.90
2023-04-21T22:05:29.681Z,99.90
2023-04-21T22:07:59.884Z,99.90
2023-04-21T22:10:28.487Z,99.90
2023-04-21T22:12:55.606Z,99.90
2023-04-21T22:15:26.684Z,99.90
2023-04-21T22:17:54.326Z,99.90
2023-04-21T22:20:23.312Z,99.90
2023-04-21T22:22:54.719Z,99.90
2023-04-21T22:25:28.252Z,99.90
2023-04-21T22:27:57.850Z,99.90
2023-04-21T22:30:33.093Z,99.90
2023-04-21T22:33:02.037Z,99.90
2023-04-21T22:35:31.471Z,99.90
2023-04-21T22:37:58.444Z,99.90
2023-04-21T22:40:28.599Z,99.90
2023-04-21T22:42:56.598Z,99.90
2023-04-21T22:45:25.483Z,99.90
2023-04-21T22:47:59.794Z,99.90
2023-04-21T22:50:28.555Z,99.90
2023-04-21T22:52:57.858Z,99.90
2023-04-21T22:55:27.270Z,99.90
2023-04-21T22:57:54.526Z,99.90
2023-04-21T23:00:24.075Z,99.90
2023-04-21T23:02:53.819Z,99.90
2023-04-21T23:05:21.649Z,99.90
2023-04-21T23:07:51.977Z,99.90
2023-04-21T23:10:23.085Z,99.90
2023-04-21T23:12:53.616Z,99.90
2023-04-21T23:15:23.597Z,99.90
2023-04-21T23:17:53.277Z,99.90
2023-04-21T23:20:21.737Z,99.90
2023-04-21T23:22:54.769Z,99.90
2023-04-21T23:25:31.890Z,99.90
2023-04-21T23:28:00.153Z,99.90
2023-04-21T23:30:37.248Z,99.90
2023-04-21T23:33:08.235Z,99.90
2023-04-21T23:35:37.013Z,99.90
2023-04-21T23:38:05.124Z,99.90
2023-04-21T23:40:34.214Z,99.90
2023-04-21T23:43:03.511Z,99.90
2023-04-21T23:45:33.398Z,99.90
2023-04-21T23:48:01.602Z,99.90
2023-04-21T23:50:29.022Z,99.90
2023-04-21T23:52:58.868Z,99.90
2023-04-21T23:55:27.483Z,99.90
2023-04-21T23:57:57.565Z,99.90
